Pagrindinis puslapis
METAR-TAF:

METAR-TAF

Oro uostai :

Kupangas, Indonezija

platuma: 10-10-17S, ilguma: 123-40-16E, Aukštis: 102 m

Dabartinis oras

Ataskaita buvo paskelbta 8 valandos ir 47 minutes, ne 12:00 UTC
Vėjas 10 kt iš Rytų/Pietryčių
Temperatūra 25°C
Drėgmė 74%
Slėgis 1014 hPa
Matomumas: 8000 m
Mažai debesys ne aukštis 1800 ft

METAR: WATT 061200Z 11010KT 8000 FEW018 25/20 Q1014 NOSIG

Laikas: 03:47 (20:47 UTC)

Prognozė

Ataskaita buvo paskelbta 3 valandos ir 47 minutes, ne 17:00 UTC
Prognozė galioja nuo 06 metu 18 UTC su 07 metu 18 UTC
Vėjas 12 kt iš Rytų
Matomumas: 8000 m
Mažai debesys ne aukštis 1800 ft
Tapsmas
nuo 07 metu 02 UTC su 07 metu 04 UTC
Vėjas 22 kt iš Rytų/Pietryčių
Tapsmas
nuo 07 metu 11 UTC su 07 metu 13 UTC
Vėjas 10 kt iš Rytų

TAF: WATT 061700Z 0618/0718 10012KT 8000 FEW018 BECMG 0702/0704 11022KT BECMG 0711/0713 10010KT

Orai ataskaitas ir orų prognozės (METAR, TAF).

turimą stotys yra geltonos ir raudonos taškus žemėlapyje.

Perkelti pele per norėdami pamatyti stoties vardą.

Tada spustelėkite, norėdami matyti oro stebėjimo ir prognozės.

Norėdami pakeisti žemėlapį: spustelėkite ant žalios mygtukų su juodo kryžiaus žemyn,; žalią mygtuką su brūkšneliu, jei norite nutolinti; arba žalių rodyklių gretimoms žemėlapius.


METAR-TAF: